sensor_id;sensor_type;location;lat;lon;timestamp;P1;durP1;ratioP1;P2;durP2;ratioP2
10715;SDS011;5409;42.620;23.316;2022-10-01T00:01:54;6.07;;;4.43;;
10715;SDS011;5409;42.620;23.316;2022-10-01T00:04:22;8.32;;;5.22;;
10715;SDS011;5409;42.620;23.316;2022-10-01T00:06:49;6.07;;;5.45;;
10715;SDS011;5409;42.620;23.316;2022-10-01T00:09:15;7.47;;;5.38;;
10715;SDS011;5409;42.620;23.316;2022-10-01T00:11:42;5.47;;;4.97;;
10715;SDS011;5409;42.620;23.316;2022-10-01T00:14:10;5.00;;;4.60;;
10715;SDS011;5409;42.620;23.316;2022-10-01T00:16:37;6.07;;;5.05;;
10715;SDS011;5409;42.620;23.316;2022-10-01T00:19:03;6.05;;;5.30;;
10715;SDS011;5409;42.620;23.316;2022-10-01T00:21:30;6.22;;;5.30;;
10715;SDS011;5409;42.620;23.316;2022-10-01T00:23:58;8.50;;;5.88;;
10715;SDS011;5409;42.620;23.316;2022-10-01T00:26:27;10.65;;;5.60;;
10715;SDS011;5409;42.620;23.316;2022-10-01T00:28:56;6.68;;;5.00;;
10715;SDS011;5409;42.620;23.316;2022-10-01T00:31:26;8.63;;;6.00;;
10715;SDS011;5409;42.620;23.316;2022-10-01T00:33:53;6.80;;;5.45;;
10715;SDS011;5409;42.620;23.316;2022-10-01T00:36:21;6.22;;;5.10;;
10715;SDS011;5409;42.620;23.316;2022-10-01T00:38:48;9.27;;;5.30;;
10715;SDS011;5409;42.620;23.316;2022-10-01T00:41:15;9.85;;;5.53;;
10715;SDS011;5409;42.620;23.316;2022-10-01T00:43:44;9.02;;;5.43;;
10715;SDS011;5409;42.620;23.316;2022-10-01T00:46:14;5.72;;;5.00;;
10715;SDS011;5409;42.620;23.316;2022-10-01T00:48:48;5.90;;;5.38;;
10715;SDS011;5409;42.620;23.316;2022-10-01T00:51:22;11.27;;;5.90;;
10715;SDS011;5409;42.620;23.316;2022-10-01T00:53:51;8.48;;;5.35;;
10715;SDS011;5409;42.620;23.316;2022-10-01T00:56:23;7.90;;;6.10;;
10715;SDS011;5409;42.620;23.316;2022-10-01T00:58:50;10.27;;;6.20;;
10715;SDS011;5409;42.620;23.316;2022-10-01T01:01:19;9.05;;;6.63;;
10715;SDS011;5409;42.620;23.316;2022-10-01T01:03:49;5.93;;;5.32;;
10715;SDS011;5409;42.620;23.316;2022-10-01T01:06:16;8.65;;;6.07;;
10715;SDS011;5409;42.620;23.316;2022-10-01T01:08:42;7.07;;;5.85;;
10715;SDS011;5409;42.620;23.316;2022-10-01T01:11:11;8.95;;;6.00;;
10715;SDS011;5409;42.620;23.316;2022-10-01T01:13:48;10.10;;;5.85;;
10715;SDS011;5409;42.620;23.316;2022-10-01T01:16:22;7.95;;;4.82;;
10715;SDS011;5409;42.620;23.316;2022-10-01T01:18:57;6.82;;;4.68;;
10715;SDS011;5409;42.620;23.316;2022-10-01T01:21:28;5.75;;;5.25;;
10715;SDS011;5409;42.620;23.316;2022-10-01T01:27:04;7.63;;;5.63;;
10715;SDS011;5409;42.620;23.316;2022-10-01T01:29:42;9.02;;;5.80;;
10715;SDS011;5409;42.620;23.316;2022-10-01T01:32:18;6.85;;;5.45;;
10715;SDS011;5409;42.620;23.316;2022-10-01T01:34:49;5.10;;;4.60;;
10715;SDS011;5409;42.620;23.316;2022-10-01T01:37:20;6.68;;;4.95;;
10715;SDS011;5409;42.620;23.316;2022-10-01T01:39:51;11.82;;;5.35;;
10715;SDS011;5409;42.620;23.316;2022-10-01T01:42:23;6.53;;;5.93;;
10715;SDS011;5409;42.620;23.316;2022-10-01T01:44:56;7.10;;;6.40;;
10715;SDS011;5409;42.620;23.316;2022-10-01T01:47:27;12.98;;;6.70;;
10715;SDS011;5409;42.620;23.316;2022-10-01T01:49:57;6.90;;;6.10;;
10715;SDS011;5409;42.620;23.316;2022-10-01T01:52:26;5.93;;;5.25;;
10715;SDS011;5409;42.620;23.316;2022-10-01T01:54:54;8.57;;;5.85;;
10715;SDS011;5409;42.620;23.316;2022-10-01T01:57:22;6.38;;;5.70;;
10715;SDS011;5409;42.620;23.316;2022-10-01T01:59:49;8.48;;;5.78;;
10715;SDS011;5409;42.620;23.316;2022-10-01T02:02:17;6.97;;;5.85;;
10715;SDS011;5409;42.620;23.316;2022-10-01T02:04:48;8.05;;;5.97;;
10715;SDS011;5409;42.620;23.316;2022-10-01T02:10:29;10.60;;;6.57;;
10715;SDS011;5409;42.620;23.316;2022-10-01T02:13:06;6.68;;;5.97;;
10715;SDS011;5409;42.620;23.316;2022-10-01T02:15:45;9.10;;;5.95;;
10715;SDS011;5409;42.620;23.316;2022-10-01T02:18:21;6.93;;;6.22;;
10715;SDS011;5409;42.620;23.316;2022-10-01T02:20:56;8.27;;;5.97;;
10715;SDS011;5409;42.620;23.316;2022-10-01T02:23:32;13.10;;;5.90;;
10715;SDS011;5409;42.620;23.316;2022-10-01T02:26:03;6.32;;;5.72;;
10715;SDS011;5409;42.620;23.316;2022-10-01T02:28:35;7.53;;;6.03;;
10715;SDS011;5409;42.620;23.316;2022-10-01T02:31:04;7.65;;;6.35;;
10715;SDS011;5409;42.620;23.316;2022-10-01T02:33:34;9.23;;;6.72;;
10715;SDS011;5409;42.620;23.316;2022-10-01T02:36:02;7.78;;;5.68;;
10715;SDS011;5409;42.620;23.316;2022-10-01T02:38:31;8.95;;;5.70;;
10715;SDS011;5409;42.620;23.316;2022-10-01T02:41:02;7.50;;;6.43;;
10715;SDS011;5409;42.620;23.316;2022-10-01T02:43:33;7.57;;;6.13;;
10715;SDS011;5409;42.620;23.316;2022-10-01T02:46:03;8.00;;;6.80;;
10715;SDS011;5409;42.620;23.316;2022-10-01T02:48:39;6.38;;;5.72;;
10715;SDS011;5409;42.620;23.316;2022-10-01T02:51:12;9.93;;;6.07;;
10715;SDS011;5409;42.620;23.316;2022-10-01T02:53:48;9.35;;;6.38;;
10715;SDS011;5409;42.620;23.316;2022-10-01T02:56:18;8.82;;;5.88;;
10715;SDS011;5409;42.620;23.316;2022-10-01T02:59:05;7.40;;;6.30;;
10715;SDS011;5409;42.620;23.316;2022-10-01T03:01:32;7.40;;;6.15;;
10715;SDS011;5409;42.620;23.316;2022-10-01T03:04:00;8.00;;;6.80;;
10715;SDS011;5409;42.620;23.316;2022-10-01T03:06:27;10.98;;;6.55;;
10715;SDS011;5409;42.620;23.316;2022-10-01T03:08:54;8.05;;;6.28;;
10715;SDS011;5409;42.620;23.316;2022-10-01T03:11:21;8.02;;;6.10;;
10715;SDS011;5409;42.620;23.316;2022-10-01T03:13:48;12.65;;;5.45;;
10715;SDS011;5409;42.620;23.316;2022-10-01T03:16:15;6.72;;;5.63;;
10715;SDS011;5409;42.620;23.316;2022-10-01T03:18:41;6.55;;;5.88;;
10715;SDS011;5409;42.620;23.316;2022-10-01T03:21:09;8.00;;;5.57;;
10715;SDS011;5409;42.620;23.316;2022-10-01T03:23:36;6.32;;;5.50;;
10715;SDS011;5409;42.620;23.316;2022-10-01T03:26:03;9.02;;;5.28;;
10715;SDS011;5409;42.620;23.316;2022-10-01T03:28:29;6.75;;;5.85;;
10715;SDS011;5409;42.620;23.316;2022-10-01T03:31:03;7.53;;;5.55;;
10715;SDS011;5409;42.620;23.316;2022-10-01T03:33:30;6.97;;;4.95;;
10715;SDS011;5409;42.620;23.316;2022-10-01T03:35:57;6.82;;;6.10;;
10715;SDS011;5409;42.620;23.316;2022-10-01T03:38:25;6.03;;;5.47;;
10715;SDS011;5409;42.620;23.316;2022-10-01T03:40:52;8.05;;;6.10;;
10715;SDS011;5409;42.620;23.316;2022-10-01T03:43:19;7.28;;;5.18;;
10715;SDS011;5409;42.620;23.316;2022-10-01T03:45:46;10.48;;;5.32;;
10715;SDS011;5409;42.620;23.316;2022-10-01T03:48:12;5.95;;;5.45;;
10715;SDS011;5409;42.620;23.316;2022-10-01T03:50:39;7.68;;;5.35;;
10715;SDS011;5409;42.620;23.316;2022-10-01T03:53:06;6.85;;;5.82;;
10715;SDS011;5409;42.620;23.316;2022-10-01T03:55:34;8.80;;;5.65;;
10715;SDS011;5409;42.620;23.316;2022-10-01T03:58:01;5.70;;;5.20;;
10715;SDS011;5409;42.620;23.316;2022-10-01T04:00:28;6.47;;;5.68;;
10715;SDS011;5409;42.620;23.316;2022-10-01T04:02:54;7.72;;;4.72;;
10715;SDS011;5409;42.620;23.316;2022-10-01T04:05:21;5.60;;;5.10;;
10715;SDS011;5409;42.620;23.316;2022-10-01T04:07:49;7.78;;;4.93;;
10715;SDS011;5409;42.620;23.316;2022-10-01T04:10:16;7.80;;;5.30;;
10715;SDS011;5409;42.620;23.316;2022-10-01T04:12:44;5.82;;;5.28;;
10715;SDS011;5409;42.620;23.316;2022-10-01T04:15:11;7.10;;;5.70;;
10715;SDS011;5409;42.620;23.316;2022-10-01T04:17:37;9.88;;;5.88;;
10715;SDS011;5409;42.620;23.316;2022-10-01T04:20:04;7.05;;;5.35;;
10715;SDS011;5409;42.620;23.316;2022-10-01T04:22:34;5.80;;;5.30;;
10715;SDS011;5409;42.620;23.316;2022-10-01T04:25:04;7.68;;;5.18;;
10715;SDS011;5409;42.620;23.316;2022-10-01T04:27:32;8.68;;;5.07;;
10715;SDS011;5409;42.620;23.316;2022-10-01T04:30:00;9.30;;;5.28;;
10715;SDS011;5409;42.620;23.316;2022-10-01T04:32:27;8.25;;;5.53;;
10715;SDS011;5409;42.620;23.316;2022-10-01T04:34:53;8.55;;;6.05;;
10715;SDS011;5409;42.620;23.316;2022-10-01T04:37:20;10.13;;;6.10;;
10715;SDS011;5409;42.620;23.316;2022-10-01T04:39:48;8.90;;;6.40;;
10715;SDS011;5409;42.620;23.316;2022-10-01T04:42:15;6.50;;;5.57;;
10715;SDS011;5409;42.620;23.316;2022-10-01T04:44:41;7.70;;;5.50;;
10715;SDS011;5409;42.620;23.316;2022-10-01T04:47:09;7.50;;;5.75;;
10715;SDS011;5409;42.620;23.316;2022-10-01T04:49:36;6.22;;;5.63;;
10715;SDS011;5409;42.620;23.316;2022-10-01T04:52:09;6.75;;;6.07;;
10715;SDS011;5409;42.620;23.316;2022-10-01T04:54:35;6.85;;;5.72;;
10715;SDS011;5409;42.620;23.316;2022-10-01T04:57:02;8.32;;;5.82;;
10715;SDS011;5409;42.620;23.316;2022-10-01T04:59:29;6.47;;;5.20;;
10715;SDS011;5409;42.620;23.316;2022-10-01T05:01:57;6.75;;;5.53;;
10715;SDS011;5409;42.620;23.316;2022-10-01T05:04:25;6.05;;;5.38;;
10715;SDS011;5409;42.620;23.316;2022-10-01T05:06:52;9.27;;;4.97;;
10715;SDS011;5409;42.620;23.316;2022-10-01T05:09:22;6.22;;;5.53;;
10715;SDS011;5409;42.620;23.316;2022-10-01T05:11:49;6.25;;;5.47;;
10715;SDS011;5409;42.620;23.316;2022-10-01T05:14:16;9.23;;;5.40;;
10715;SDS011;5409;42.620;23.316;2022-10-01T05:16:45;6.85;;;5.63;;
10715;SDS011;5409;42.620;23.316;2022-10-01T05:19:12;7.10;;;4.80;;
10715;SDS011;5409;42.620;23.316;2022-10-01T05:21:40;5.57;;;4.93;;
10715;SDS011;5409;42.620;23.316;2022-10-01T05:24:07;6.60;;;5.88;;
10715;SDS011;5409;42.620;23.316;2022-10-01T05:26:34;7.13;;;5.60;;
10715;SDS011;5409;42.620;23.316;2022-10-01T05:29:03;10.85;;;6.05;;
10715;SDS011;5409;42.620;23.316;2022-10-01T05:31:31;7.00;;;5.28;;
10715;SDS011;5409;42.620;23.316;2022-10-01T05:33:58;7.18;;;5.70;;
10715;SDS011;5409;42.620;23.316;2022-10-01T05:36:24;6.32;;;5.55;;
10715;SDS011;5409;42.620;23.316;2022-10-01T05:38:52;6.95;;;4.78;;
10715;SDS011;5409;42.620;23.316;2022-10-01T05:41:19;7.85;;;5.07;;
10715;SDS011;5409;42.620;23.316;2022-10-01T05:43:46;5.63;;;5.13;;
10715;SDS011;5409;42.620;23.316;2022-10-01T05:46:13;7.20;;;4.55;;
10715;SDS011;5409;42.620;23.316;2022-10-01T05:48:40;7.60;;;5.43;;
10715;SDS011;5409;42.620;23.316;2022-10-01T05:51:07;9.30;;;5.95;;
10715;SDS011;5409;42.620;23.316;2022-10-01T05:53:33;8.20;;;5.00;;
10715;SDS011;5409;42.620;23.316;2022-10-01T05:56:03;7.43;;;5.30;;
10715;SDS011;5409;42.620;23.316;2022-10-01T05:58:30;6.30;;;5.30;;
10715;SDS011;5409;42.620;23.316;2022-10-01T06:00:57;6.88;;;4.78;;
10715;SDS011;5409;42.620;23.316;2022-10-01T06:03:24;5.82;;;4.63;;
10715;SDS011;5409;42.620;23.316;2022-10-01T06:05:52;5.20;;;4.72;;
10715;SDS011;5409;42.620;23.316;2022-10-01T06:08:19;7.05;;;4.93;;
10715;SDS011;5409;42.620;23.316;2022-10-01T06:10:46;5.88;;;4.05;;
10715;SDS011;5409;42.620;23.316;2022-10-01T06:13:14;4.68;;;4.28;;
10715;SDS011;5409;42.620;23.316;2022-10-01T06:15:42;6.30;;;4.32;;
10715;SDS011;5409;42.620;23.316;2022-10-01T06:18:10;4.90;;;4.40;;
10715;SDS011;5409;42.620;23.316;2022-10-01T06:20:38;4.28;;;3.88;;
10715;SDS011;5409;42.620;23.316;2022-10-01T06:23:06;4.72;;;4.22;;
10715;SDS011;5409;42.620;23.316;2022-10-01T06:25:36;5.70;;;4.65;;
10715;SDS011;5409;42.620;23.316;2022-10-01T06:28:04;5.82;;;4.78;;
10715;SDS011;5409;42.620;23.316;2022-10-01T06:30:34;6.70;;;4.72;;
10715;SDS011;5409;42.620;23.316;2022-10-01T06:33:03;6.28;;;5.68;;
10715;SDS011;5409;42.620;23.316;2022-10-01T06:35:31;10.38;;;5.70;;
10715;SDS011;5409;42.620;23.316;2022-10-01T06:37:59;13.35;;;5.40;;
10715;SDS011;5409;42.620;23.316;2022-10-01T06:40:26;10.50;;;5.47;;
10715;SDS011;5409;42.620;23.316;2022-10-01T06:42:54;8.07;;;4.68;;
10715;SDS011;5409;42.620;23.316;2022-10-01T06:45:22;6.97;;;5.03;;
10715;SDS011;5409;42.620;23.316;2022-10-01T06:47:53;6.80;;;6.07;;
10715;SDS011;5409;42.620;23.316;2022-10-01T06:50:21;13.18;;;6.28;;
10715;SDS011;5409;42.620;23.316;2022-10-01T06:52:48;9.82;;;5.57;;
10715;SDS011;5409;42.620;23.316;2022-10-01T06:55:15;11.20;;;5.95;;
10715;SDS011;5409;42.620;23.316;2022-10-01T06:57:42;12.38;;;5.90;;
10715;SDS011;5409;42.620;23.316;2022-10-01T07:00:09;10.48;;;6.25;;
10715;SDS011;5409;42.620;23.316;2022-10-01T07:02:37;9.00;;;6.07;;
10715;SDS011;5409;42.620;23.316;2022-10-01T07:05:06;11.82;;;5.55;;
10715;SDS011;5409;42.620;23.316;2022-10-01T07:07:34;9.57;;;6.90;;
10715;SDS011;5409;42.620;23.316;2022-10-01T07:10:02;11.13;;;6.50;;
10715;SDS011;5409;42.620;23.316;2022-10-01T07:12:31;14.85;;;6.28;;
10715;SDS011;5409;42.620;23.316;2022-10-01T07:14:58;9.35;;;6.43;;
10715;SDS011;5409;42.620;23.316;2022-10-01T07:17:25;9.95;;;6.43;;
10715;SDS011;5409;42.620;23.316;2022-10-01T07:19:52;9.45;;;6.07;;
10715;SDS011;5409;42.620;23.316;2022-10-01T07:22:20;12.27;;;5.68;;
10715;SDS011;5409;42.620;23.316;2022-10-01T07:24:48;11.73;;;6.63;;
10715;SDS011;5409;42.620;23.316;2022-10-01T07:27:16;11.50;;;6.72;;
10715;SDS011;5409;42.620;23.316;2022-10-01T07:29:44;10.05;;;6.03;;
10715;SDS011;5409;42.620;23.316;2022-10-01T07:32:10;10.77;;;6.30;;
10715;SDS011;5409;42.620;23.316;2022-10-01T07:34:38;8.27;;;6.28;;
10715;SDS011;5409;42.620;23.316;2022-10-01T07:37:05;9.98;;;6.28;;
10715;SDS011;5409;42.620;23.316;2022-10-01T07:39:34;7.78;;;5.72;;
10715;SDS011;5409;42.620;23.316;2022-10-01T07:42:01;7.35;;;5.18;;
10715;SDS011;5409;42.620;23.316;2022-10-01T07:44:28;10.70;;;5.68;;
10715;SDS011;5409;42.620;23.316;2022-10-01T07:46:55;7.05;;;5.25;;
10715;SDS011;5409;42.620;23.316;2022-10-01T07:49:22;11.68;;;5.40;;
10715;SDS011;5409;42.620;23.316;2022-10-01T07:51:50;7.07;;;4.90;;
10715;SDS011;5409;42.620;23.316;2022-10-01T07:54:18;6.38;;;5.47;;
10715;SDS011;5409;42.620;23.316;2022-10-01T07:56:47;7.88;;;5.65;;
10715;SDS011;5409;42.620;23.316;2022-10-01T07:59:16;10.38;;;5.07;;
10715;SDS011;5409;42.620;23.316;2022-10-01T08:01:46;8.48;;;5.40;;
10715;SDS011;5409;42.620;23.316;2022-10-01T08:04:13;8.80;;;4.68;;
10715;SDS011;5409;42.620;23.316;2022-10-01T08:06:57;5.18;;;3.90;;
10715;SDS011;5409;42.620;23.316;2022-10-01T08:09:24;5.75;;;4.18;;
10715;SDS011;5409;42.620;23.316;2022-10-01T08:11:52;4.72;;;4.20;;
10715;SDS011;5409;42.620;23.316;2022-10-01T08:14:19;5.45;;;4.20;;
10715;SDS011;5409;42.620;23.316;2022-10-01T08:16:45;5.55;;;4.18;;
10715;SDS011;5409;42.620;23.316;2022-10-01T08:19:12;4.30;;;3.90;;
10715;SDS011;5409;42.620;23.316;2022-10-01T08:21:39;5.30;;;4.32;;
10715;SDS011;5409;42.620;23.316;2022-10-01T08:24:06;5.63;;;4.82;;
10715;SDS011;5409;42.620;23.316;2022-10-01T08:26:33;7.25;;;4.22;;
10715;SDS011;5409;42.620;23.316;2022-10-01T08:29:01;7.10;;;4.20;;
10715;SDS011;5409;42.620;23.316;2022-10-01T08:31:28;9.55;;;4.25;;
10715;SDS011;5409;42.620;23.316;2022-10-01T08:33:55;6.90;;;4.15;;
10715;SDS011;5409;42.620;23.316;2022-10-01T08:36:22;6.38;;;3.25;;
10715;SDS011;5409;42.620;23.316;2022-10-01T08:38:49;2.00;;;1.60;;
10715;SDS011;5409;42.620;23.316;2022-10-01T08:41:19;4.70;;;2.10;;
10715;SDS011;5409;42.620;23.316;2022-10-01T08:43:55;3.75;;;1.60;;
10715;SDS011;5409;42.620;23.316;2022-10-01T08:46:25;4.78;;;1.73;;
10715;SDS011;5409;42.620;23.316;2022-10-01T08:48:57;3.13;;;1.45;;
10715;SDS011;5409;42.620;23.316;2022-10-01T08:51:30;4.95;;;1.55;;
10715;SDS011;5409;42.620;23.316;2022-10-01T08:54:06;3.97;;;2.67;;
10715;SDS011;5409;42.620;23.316;2022-10-01T08:56:42;4.88;;;3.17;;
10715;SDS011;5409;42.620;23.316;2022-10-01T08:59:13;5.32;;;3.78;;
10715;SDS011;5409;42.620;23.316;2022-10-01T09:01:54;10.18;;;3.80;;
10715;SDS011;5409;42.620;23.316;2022-10-01T09:04:23;7.60;;;4.00;;
10715;SDS011;5409;42.620;23.316;2022-10-01T09:06:51;6.82;;;3.97;;
10715;SDS011;5409;42.620;23.316;2022-10-01T09:09:35;4.22;;;3.83;;
10715;SDS011;5409;42.620;23.316;2022-10-01T09:12:13;3.25;;;2.95;;
10715;SDS011;5409;42.620;23.316;2022-10-01T09:14:57;4.07;;;1.52;;
10715;SDS011;5409;42.620;23.316;2022-10-01T09:17:42;2.10;;;1.73;;
10715;SDS011;5409;42.620;23.316;2022-10-01T09:20:17;2.47;;;1.10;;
10715;SDS011;5409;42.620;23.316;2022-10-01T09:22:52;3.22;;;1.38;;
10715;SDS011;5409;42.620;23.316;2022-10-01T09:25:38;2.50;;;1.27;;
10715;SDS011;5409;42.620;23.316;2022-10-01T09:28:10;2.83;;;1.50;;
10715;SDS011;5409;42.620;23.316;2022-10-01T09:30:40;2.17;;;1.63;;
10715;SDS011;5409;42.620;23.316;2022-10-01T09:33:13;2.15;;;1.50;;
10715;SDS011;5409;42.620;23.316;2022-10-01T09:35:43;2.15;;;1.35;;
10715;SDS011;5409;42.620;23.316;2022-10-01T09:38:15;3.42;;;1.45;;
10715;SDS011;5409;42.620;23.316;2022-10-01T09:40:51;4.13;;;1.65;;
10715;SDS011;5409;42.620;23.316;2022-10-01T09:43:19;7.90;;;1.98;;
10715;SDS011;5409;42.620;23.316;2022-10-01T09:45:47;5.70;;;2.50;;
10715;SDS011;5409;42.620;23.316;2022-10-01T09:51:06;5.05;;;2.22;;
10715;SDS011;5409;42.620;23.316;2022-10-01T09:53:39;6.00;;;2.53;;
10715;SDS011;5409;42.620;23.316;2022-10-01T09:56:11;5.78;;;2.97;;
10715;SDS011;5409;42.620;23.316;2022-10-01T09:58:45;3.72;;;3.25;;
10715;SDS011;5409;42.620;23.316;2022-10-01T10:01:17;8.20;;;3.60;;
10715;SDS011;5409;42.620;23.316;2022-10-01T10:03:56;8.75;;;2.88;;
10715;SDS011;5409;42.620;23.316;2022-10-01T10:06:24;4.55;;;2.55;;
10715;SDS011;5409;42.620;23.316;2022-10-01T10:08:52;3.95;;;2.10;;
10715;SDS011;5409;42.620;23.316;2022-10-01T10:11:21;4.38;;;2.13;;
10715;SDS011;5409;42.620;23.316;2022-10-01T10:13:51;3.90;;;2.10;;
10715;SDS011;5409;42.620;23.316;2022-10-01T10:16:22;1.98;;;1.30;;
10715;SDS011;5409;42.620;23.316;2022-10-01T10:18:51;3.72;;;1.10;;
10715;SDS011;5409;42.620;23.316;2022-10-01T10:21:22;3.55;;;2.10;;
10715;SDS011;5409;42.620;23.316;2022-10-01T10:23:52;8.80;;;3.30;;
10715;SDS011;5409;42.620;23.316;2022-10-01T10:26:24;3.53;;;2.30;;
10715;SDS011;5409;42.620;23.316;2022-10-01T10:28:54;6.07;;;2.70;;
10715;SDS011;5409;42.620;23.316;2022-10-01T10:31:22;2.50;;;1.40;;
10715;SDS011;5409;42.620;23.316;2022-10-01T10:33:51;6.15;;;2.67;;
10715;SDS011;5409;42.620;23.316;2022-10-01T10:36:24;3.38;;;1.50;;
10715;SDS011;5409;42.620;23.316;2022-10-01T10:38:53;3.85;;;1.67;;
10715;SDS011;5409;42.620;23.316;2022-10-01T10:41:21;1.23;;;1.13;;
10715;SDS011;5409;42.620;23.316;2022-10-01T10:43:51;2.40;;;1.23;;
10715;SDS011;5409;42.620;23.316;2022-10-01T10:46:25;1.27;;;0.80;;
10715;SDS011;5409;42.620;23.316;2022-10-01T10:48:58;1.40;;;0.88;;
10715;SDS011;5409;42.620;23.316;2022-10-01T10:51:42;2.55;;;1.20;;
10715;SDS011;5409;42.620;23.316;2022-10-01T10:54:18;1.42;;;0.98;;
10715;SDS011;5409;42.620;23.316;2022-10-01T10:56:54;3.33;;;1.25;;
10715;SDS011;5409;42.620;23.316;2022-10-01T10:59:25;1.63;;;1.10;;
10715;SDS011;5409;42.620;23.316;2022-10-01T11:01:52;5.05;;;0.82;;
10715;SDS011;5409;42.620;23.316;2022-10-01T11:04:20;4.75;;;0.93;;
10715;SDS011;5409;42.620;23.316;2022-10-01T11:06:54;1.75;;;0.70;;
10715;SDS011;5409;42.620;23.316;2022-10-01T11:09:23;3.60;;;1.20;;
10715;SDS011;5409;42.620;23.316;2022-10-01T11:11:57;4.65;;;1.08;;
10715;SDS011;5409;42.620;23.316;2022-10-01T11:14:34;1.13;;;0.93;;
10715;SDS011;5409;42.620;23.316;2022-10-01T11:20:21;1.80;;;0.95;;
10715;SDS011;5409;42.620;23.316;2022-10-01T11:23:16;2.60;;;0.80;;
10715;SDS011;5409;42.620;23.316;2022-10-01T11:26:00;2.10;;;0.90;;
10715;SDS011;5409;42.620;23.316;2022-10-01T11:28:40;3.60;;;1.00;;
10715;SDS011;5409;42.620;23.316;2022-10-01T11:31:16;1.45;;;0.80;;
10715;SDS011;5409;42.620;23.316;2022-10-01T11:33:58;4.88;;;1.63;;
10715;SDS011;5409;42.620;23.316;2022-10-01T11:36:38;8.05;;;2.85;;
10715;SDS011;5409;42.620;23.316;2022-10-01T11:39:12;4.30;;;2.38;;
10715;SDS011;5409;42.620;23.316;2022-10-01T11:41:41;4.07;;;1.98;;
10715;SDS011;5409;42.620;23.316;2022-10-01T11:44:13;5.45;;;2.28;;
10715;SDS011;5409;42.620;23.316;2022-10-01T11:46:48;3.80;;;1.90;;
10715;SDS011;5409;42.620;23.316;2022-10-01T11:49:26;3.83;;;1.90;;
10715;SDS011;5409;42.620;23.316;2022-10-01T11:52:14;13.60;;;4.15;;
10715;SDS011;5409;42.620;23.316;2022-10-01T11:54:57;6.78;;;3.05;;
10715;SDS011;5409;42.620;23.316;2022-10-01T11:57:44;5.03;;;2.63;;
10715;SDS011;5409;42.620;23.316;2022-10-01T12:00:30;4.60;;;3.15;;
10715;SDS011;5409;42.620;23.316;2022-10-01T12:02:59;5.60;;;4.07;;
10715;SDS011;5409;42.620;23.316;2022-10-01T12:05:31;6.35;;;3.72;;
10715;SDS011;5409;42.620;23.316;2022-10-01T12:08:02;8.07;;;4.43;;
10715;SDS011;5409;42.620;23.316;2022-10-01T12:10:38;7.18;;;4.10;;
10715;SDS011;5409;42.620;23.316;2022-10-01T12:13:11;6.43;;;3.70;;
10715;SDS011;5409;42.620;23.316;2022-10-01T12:15:47;5.65;;;3.90;;
10715;SDS011;5409;42.620;23.316;2022-10-01T12:18:19;4.75;;;2.92;;
10715;SDS011;5409;42.620;23.316;2022-10-01T12:20:50;5.72;;;3.47;;
10715;SDS011;5409;42.620;23.316;2022-10-01T12:23:19;5.00;;;2.75;;
10715;SDS011;5409;42.620;23.316;2022-10-01T12:25:53;4.60;;;3.40;;
10715;SDS011;5409;42.620;23.316;2022-10-01T12:28:29;4.47;;;3.08;;
10715;SDS011;5409;42.620;23.316;2022-10-01T12:31:03;4.57;;;3.03;;
10715;SDS011;5409;42.620;23.316;2022-10-01T12:33:39;8.20;;;3.92;;
10715;SDS011;5409;42.620;23.316;2022-10-01T12:36:17;9.73;;;4.90;;
10715;SDS011;5409;42.620;23.316;2022-10-01T12:38:54;7.47;;;4.90;;
10715;SDS011;5409;42.620;23.316;2022-10-01T12:41:31;6.28;;;3.67;;
10715;SDS011;5409;42.620;23.316;2022-10-01T12:47:08;9.48;;;5.53;;
10715;SDS011;5409;42.620;23.316;2022-10-01T12:49:46;6.95;;;4.50;;
10715;SDS011;5409;42.620;23.316;2022-10-01T12:52:22;10.52;;;6.38;;
10715;SDS011;5409;42.620;23.316;2022-10-01T12:55:04;13.98;;;9.43;;
10715;SDS011;5409;42.620;23.316;2022-10-01T12:57:51;10.00;;;5.53;;
10715;SDS011;5409;42.620;23.316;2022-10-01T13:00:25;8.82;;;4.43;;
10715;SDS011;5409;42.620;23.316;2022-10-01T13:05:58;8.50;;;4.00;;
10715;SDS011;5409;42.620;23.316;2022-10-01T13:08:38;7.10;;;3.95;;
10715;SDS011;5409;42.620;23.316;2022-10-01T13:11:16;7.53;;;4.30;;
10715;SDS011;5409;42.620;23.316;2022-10-01T13:13:53;8.23;;;3.85;;
10715;SDS011;5409;42.620;23.316;2022-10-01T13:16:23;6.88;;;3.80;;
10715;SDS011;5409;42.620;23.316;2022-10-01T13:18:57;4.97;;;3.50;;
10715;SDS011;5409;42.620;23.316;2022-10-01T13:21:34;5.43;;;3.42;;
10715;SDS011;5409;42.620;23.316;2022-10-01T13:24:11;5.93;;;3.53;;
10715;SDS011;5409;42.620;23.316;2022-10-01T13:26:46;5.88;;;4.30;;
10715;SDS011;5409;42.620;23.316;2022-10-01T13:29:26;6.32;;;4.03;;
10715;SDS011;5409;42.620;23.316;2022-10-01T13:32:00;5.43;;;3.10;;
10715;SDS011;5409;42.620;23.316;2022-10-01T13:34:36;3.78;;;3.25;;
10715;SDS011;5409;42.620;23.316;2022-10-01T13:37:11;5.10;;;3.25;;
10715;SDS011;5409;42.620;23.316;2022-10-01T13:39:39;3.92;;;3.30;;
10715;SDS011;5409;42.620;23.316;2022-10-01T13:42:10;5.28;;;3.45;;
10715;SDS011;5409;42.620;23.316;2022-10-01T13:44:49;6.32;;;3.28;;
10715;SDS011;5409;42.620;23.316;2022-10-01T13:47:18;5.55;;;3.22;;
10715;SDS011;5409;42.620;23.316;2022-10-01T13:49:52;6.88;;;3.38;;
10715;SDS011;5409;42.620;23.316;2022-10-01T13:52:21;5.30;;;3.10;;
10715;SDS011;5409;42.620;23.316;2022-10-01T13:54:50;4.60;;;3.00;;
10715;SDS011;5409;42.620;23.316;2022-10-01T13:57:32;3.80;;;3.03;;
10715;SDS011;5409;42.620;23.316;2022-10-01T14:00:03;7.00;;;3.33;;
10715;SDS011;5409;42.620;23.316;2022-10-01T14:02:56;7.05;;;2.88;;
10715;SDS011;5409;42.620;23.316;2022-10-01T14:05:27;4.40;;;3.10;;
10715;SDS011;5409;42.620;23.316;2022-10-01T14:08:02;5.63;;;3.22;;
10715;SDS011;5409;42.620;23.316;2022-10-01T14:10:38;8.32;;;3.70;;
10715;SDS011;5409;42.620;23.316;2022-10-01T14:13:22;8.70;;;3.22;;
10715;SDS011;5409;42.620;23.316;2022-10-01T14:16:10;3.85;;;3.05;;
10715;SDS011;5409;42.620;23.316;2022-10-01T14:18:38;8.27;;;4.30;;
10715;SDS011;5409;42.620;23.316;2022-10-01T14:21:12;15.10;;;4.30;;
10715;SDS011;5409;42.620;23.316;2022-10-01T14:23:53;10.65;;;3.80;;
10715;SDS011;5409;42.620;23.316;2022-10-01T14:26:28;10.40;;;3.85;;
10715;SDS011;5409;42.620;23.316;2022-10-01T14:29:04;7.55;;;3.15;;
10715;SDS011;5409;42.620;23.316;2022-10-01T14:31:46;7.57;;;2.95;;
10715;SDS011;5409;42.620;23.316;2022-10-01T14:34:26;9.13;;;3.17;;
10715;SDS011;5409;42.620;23.316;2022-10-01T14:37:04;3.83;;;3.00;;
10715;SDS011;5409;42.620;23.316;2022-10-01T14:39:32;4.28;;;2.80;;
10715;SDS011;5409;42.620;23.316;2022-10-01T14:42:05;5.78;;;2.75;;
10715;SDS011;5409;42.620;23.316;2022-10-01T14:44:36;3.78;;;3.00;;
10715;SDS011;5409;42.620;23.316;2022-10-01T14:47:12;5.22;;;3.15;;
10715;SDS011;5409;42.620;23.316;2022-10-01T14:49:42;5.65;;;2.58;;
10715;SDS011;5409;42.620;23.316;2022-10-01T14:52:14;3.40;;;2.67;;
10715;SDS011;5409;42.620;23.316;2022-10-01T14:54:46;5.55;;;2.97;;
10715;SDS011;5409;42.620;23.316;2022-10-01T14:57:19;3.22;;;2.75;;
10715;SDS011;5409;42.620;23.316;2022-10-01T14:59:53;4.50;;;3.03;;
10715;SDS011;5409;42.620;23.316;2022-10-01T15:02:24;3.25;;;2.70;;
10715;SDS011;5409;42.620;23.316;2022-10-01T15:04:51;8.05;;;3.58;;
10715;SDS011;5409;42.620;23.316;2022-10-01T15:07:20;6.30;;;3.28;;
10715;SDS011;5409;42.620;23.316;2022-10-01T15:09:48;8.60;;;2.70;;
10715;SDS011;5409;42.620;23.316;2022-10-01T15:12:16;9.98;;;3.63;;
10715;SDS011;5409;42.620;23.316;2022-10-01T15:14:45;7.97;;;3.80;;
10715;SDS011;5409;42.620;23.316;2022-10-01T15:17:15;7.93;;;3.63;;
10715;SDS011;5409;42.620;23.316;2022-10-01T15:19:46;6.60;;;3.70;;
10715;SDS011;5409;42.620;23.316;2022-10-01T15:22:18;24.98;;;6.43;;
10715;SDS011;5409;42.620;23.316;2022-10-01T15:24:50;42.25;;;24.27;;
10715;SDS011;5409;42.620;23.316;2022-10-01T15:27:23;8.38;;;5.70;;